Time;durP1;ratioP1;P1;durP2;ratioP2;P2;SDS_P1;SDS_P2;PMS_P1;PMS_P2;Temp;Humidity;BMP_temperature;BMP_pressure;BME280_temperature;BME280_humidity;BME280_pressure;Samples;Min_cycle;Max_cycle;Signal;HPM_P1;HPM_P2
2023/10/30 00:01:24;;;;;;;2.30;0.60;;;11.50;99.90;;;;;;5103062;27;20700;-48
2023/10/30 00:03:52;;;;;;;2.83;0.93;;;11.50;99.90;;;;;;5078052;28;20217;-45
2023/10/30 00:06:18;;;;;;;0.80;0.60;;;11.50;99.90;;;;;;5103595;27;20623;-52
2023/10/30 00:08:45;;;;;;;4.17;1.00;;;11.50;99.90;;;;;;5089288;27;20212;-51
2023/10/30 00:11:12;;;;;;;1.93;0.70;;;11.60;99.90;;;;;;5102177;27;20262;-48
2023/10/30 00:13:39;;;;;;;3.03;0.77;;;11.60;99.90;;;;;;5098122;27;20262;-47
2023/10/30 00:16:06;;;;;;;2.63;0.57;;;11.60;99.90;;;;;;5091061;27;20262;-48
2023/10/30 00:18:35;;;;;;;2.27;0.50;;;11.60;99.90;;;;;;5099247;28;20374;-47
2023/10/30 00:21:02;;;;;;;2.00;0.57;;;11.70;99.90;;;;;;5077625;27;20209;-48
2023/10/30 00:23:28;;;;;;;1.97;0.77;;;11.70;99.90;;;;;;5091453;28;20231;-48
2023/10/30 00:25:56;;;;;;;1.47;0.57;;;11.70;99.90;;;;;;5098695;28;20225;-45
2023/10/30 00:28:24;;;;;;;2.93;0.50;;;11.70;99.90;;;;;;5098770;28;20212;-48
2023/10/30 00:30:50;;;;;;;4.10;0.80;;;11.60;99.90;;;;;;5100917;27;20205;-46
2023/10/30 00:33:17;;;;;;;2.30;0.97;;;11.70;99.90;;;;;;5103234;27;20208;-52
2023/10/30 00:35:46;;;;;;;3.20;0.53;;;11.70;99.90;;;;;;5078395;27;20196;-46
2023/10/30 00:38:12;;;;;;;2.80;0.80;;;11.60;99.90;;;;;;5105571;27;20606;-51
2023/10/30 00:40:39;;;;;;;2.50;0.97;;;11.70;99.90;;;;;;5088362;27;20209;-50
2023/10/30 00:43:07;;;;;;;2.67;1.00;;;11.70;99.90;;;;;;5110268;27;20252;-48
2023/10/30 00:45:34;;;;;;;1.63;0.60;;;11.70;99.90;;;;;;5092010;27;20224;-47
2023/10/30 00:48:00;;;;;;;2.57;0.60;;;11.70;99.90;;;;;;5110895;27;20226;-48
2023/10/30 00:50:27;;;;;;;1.57;0.60;;;11.70;99.90;;;;;;5075413;28;20197;-50
2023/10/30 00:52:55;;;;;;;2.23;0.57;;;11.70;99.90;;;;;;5105495;27;20636;-49
2023/10/30 00:55:22;;;;;;;2.17;0.70;;;11.70;99.90;;;;;;5093093;27;20231;-51
2023/10/30 00:57:49;;;;;;;4.37;0.80;;;11.70;99.90;;;;;;5110211;27;20230;-49
2023/10/30 01:00:16;;;;;;;1.43;0.60;;;11.70;99.90;;;;;;5095984;28;20217;-52
2023/10/30 01:02:44;;;;;;;3.53;1.07;;;11.70;99.90;;;;;;5098287;28;20213;-46
2023/10/30 01:05:11;;;;;;;3.37;1.30;;;11.70;99.90;;;;;;5078250;27;20205;-49
2023/10/30 01:07:38;;;;;;;2.93;0.90;;;11.70;99.90;;;;;;5100600;28;20188;-46
2023/10/30 01:10:07;;;;;;;2.37;0.60;;;11.80;99.90;;;;;;5101876;28;20262;-48
2023/10/30 01:12:35;;;;;;;4.23;1.00;;;11.70;99.90;;;;;;5087908;28;20262;-50
2023/10/30 01:15:02;;;;;;;3.53;0.83;;;11.80;99.90;;;;;;5108755;27;20192;-48
2023/10/30 01:17:29;;;;;;;9.27;1.00;;;11.80;99.90;;;;;;5085734;28;20254;-49
2023/10/30 01:19:55;;;;;;;5.50;0.80;;;11.80;99.90;;;;;;5101083;27;20250;-45
2023/10/30 01:22:21;;;;;;;3.83;0.93;;;11.80;99.90;;;;;;5083782;27;20201;-49
2023/10/30 01:24:48;;;;;;;5.03;0.87;;;11.80;99.90;;;;;;5106054;27;21166;-49
2023/10/30 01:27:17;;;;;;;6.20;0.70;;;11.80;99.90;;;;;;5091615;27;20251;-49
2023/10/30 01:29:44;;;;;;;1.90;0.70;;;11.80;99.90;;;;;;5101797;28;20320;-45
2023/10/30 01:32:10;;;;;;;2.57;0.87;;;11.80;99.90;;;;;;5095271;28;20205;-48
2023/10/30 01:34:37;;;;;;;4.07;0.73;;;11.80;99.90;;;;;;5099222;28;20213;-47
2023/10/30 01:37:04;;;;;;;4.80;1.20;;;11.90;99.90;;;;;;5079919;28;20274;-48
2023/10/30 01:39:32;;;;;;;1.93;0.60;;;11.90;99.90;;;;;;5102200;27;20192;-50
2023/10/30 01:41:59;;;;;;;4.23;1.43;;;11.90;99.90;;;;;;5102764;28;20246;-45
2023/10/30 01:44:27;;;;;;;1.50;0.80;;;11.80;99.90;;;;;;5087886;28;20213;-47
2023/10/30 01:46:56;;;;;;;3.53;0.60;;;11.80;99.90;;;;;;5098830;28;20193;-46
2023/10/30 01:49:22;;;;;;;2.87;0.57;;;11.70;99.90;;;;;;5100582;28;20216;-48
2023/10/30 01:51:49;;;;;;;2.20;0.50;;;11.70;99.90;;;;;;5083511;28;20244;-45
2023/10/30 01:54:16;;;;;;;1.30;0.67;;;11.70;99.90;;;;;;5100665;28;20216;-54
2023/10/30 01:56:43;;;;;;;1.73;0.63;;;11.60;99.90;;;;;;5104750;28;20181;-48
2023/10/30 01:59:11;;;;;;;3.27;0.80;;;11.60;99.90;;;;;;5090875;28;20287;-50
2023/10/30 02:01:39;;;;;;;1.30;0.80;;;11.60;99.90;;;;;;5098822;28;20199;-45
2023/10/30 02:04:06;;;;;;;3.80;0.70;;;11.50;99.90;;;;;;5096175;27;20746;-47
2023/10/30 02:06:33;;;;;;;1.10;0.70;;;11.50;99.90;;;;;;5081654;27;20208;-48
2023/10/30 02:09:00;;;;;;;4.43;0.70;;;11.50;99.90;;;;;;5105979;27;20198;-47
2023/10/30 02:11:27;;;;;;;2.00;0.90;;;11.40;99.90;;;;;;5105491;27;20942;-50
2023/10/30 02:13:57;;;;;;;1.33;0.60;;;11.50;99.90;;;;;;5095847;28;20241;-46
2023/10/30 02:16:24;;;;;;;2.70;0.80;;;11.40;99.90;;;;;;5102980;28;20196;-50
2023/10/30 02:18:52;;;;;;;6.20;0.73;;;11.40;99.90;;;;;;5096963;28;20201;-47
2023/10/30 02:21:20;;;;;;;2.50;0.50;;;11.40;99.90;;;;;;5085130;28;21030;-50
2023/10/30 02:23:47;;;;;;;3.67;0.60;;;11.30;99.90;;;;;;5074556;27;20658;-48
2023/10/30 02:26:15;;;;;;;5.37;0.80;;;11.30;99.90;;;;;;5102683;28;20299;-46
2023/10/30 02:28:42;;;;;;;3.67;1.00;;;11.30;99.90;;;;;;5101846;28;20213;-44
2023/10/30 02:31:09;;;;;;;4.00;0.60;;;11.30;99.90;;;;;;5102493;27;20193;-50
2023/10/30 02:33:36;;;;;;;3.83;0.97;;;11.30;99.90;;;;;;5104553;28;20213;-49
2023/10/30 02:36:03;;;;;;;2.37;1.10;;;11.30;99.90;;;;;;5093367;28;20189;-47
2023/10/30 02:38:29;;;;;;;2.37;0.83;;;11.30;99.90;;;;;;5074508;28;20209;-47
2023/10/30 02:40:56;;;;;;;5.53;1.03;;;11.30;99.90;;;;;;5106715;27;20621;-46
2023/10/30 02:43:24;;;;;;;5.50;0.90;;;11.30;99.90;;;;;;5106049;27;20209;-52
2023/10/30 02:45:51;;;;;;;4.27;0.80;;;11.30;99.90;;;;;;5092443;28;20228;-47
2023/10/30 02:48:18;;;;;;;2.90;0.87;;;11.30;99.90;;;;;;5104194;28;20185;-52
2023/10/30 02:50:45;;;;;;;6.57;0.83;;;11.30;99.90;;;;;;5094792;28;20733;-47
2023/10/30 02:53:11;;;;;;;1.83;0.57;;;11.30;99.90;;;;;;5071721;27;20369;-48
2023/10/30 02:55:38;;;;;;;2.17;0.70;;;11.30;99.90;;;;;;5104392;28;20189;-49
2023/10/30 02:58:05;;;;;;;4.30;0.73;;;11.30;99.90;;;;;;5100301;28;20188;-49
2023/10/30 03:00:33;;;;;;;5.33;1.20;;;11.20;99.90;;;;;;5093761;28;20262;-48
2023/10/30 03:03:00;;;;;;;1.53;0.80;;;11.20;99.90;;;;;;5100713;27;20241;-43
2023/10/30 03:05:27;;;;;;;2.57;0.90;;;11.20;99.90;;;;;;5098671;27;20270;-48
2023/10/30 03:07:53;;;;;;;2.60;0.90;;;11.10;99.90;;;;;;5100861;28;20267;-43
2023/10/30 03:10:19;;;;;;;1.90;0.83;;;11.10;99.90;;;;;;5074607;28;20733;-46
2023/10/30 03:12:46;;;;;;;2.77;0.73;;;11.10;99.90;;;;;;5102736;28;20221;-45
2023/10/30 03:15:13;;;;;;;3.20;1.10;;;11.10;99.90;;;;;;5090564;28;20205;-46
2023/10/30 03:17:41;;;;;;;5.00;1.03;;;11.10;99.90;;;;;;5117471;27;20671;-46
2023/10/30 03:20:09;;;;;;;5.03;1.10;;;11.10;99.90;;;;;;5091682;28;20197;-45
2023/10/30 03:22:36;;;;;;;5.13;1.00;;;11.10;99.90;;;;;;5103633;28;20244;-47
2023/10/30 03:25:04;;;;;;;6.93;1.03;;;11.10;99.90;;;;;;5070971;27;20301;-51
2023/10/30 03:27:31;;;;;;;4.17;0.70;;;11.00;99.90;;;;;;5101969;28;20197;-52
2023/10/30 03:29:58;;;;;;;3.30;0.80;;;11.10;99.90;;;;;;5093528;27;20667;-43
2023/10/30 03:32:25;;;;;;;5.10;1.07;;;11.10;99.90;;;;;;5103508;28;20201;-48
2023/10/30 03:34:53;;;;;;;4.50;1.10;;;11.10;99.90;;;;;;5100143;27;20250;-46
2023/10/30 03:37:20;;;;;;;2.67;0.70;;;11.10;99.90;;;;;;5103370;27;20946;-48
2023/10/30 03:39:47;;;;;;;5.80;1.50;;;11.10;99.90;;;;;;5071911;27;20208;-48
2023/10/30 03:42:14;;;;;;;4.23;0.90;;;11.00;99.90;;;;;;5102061;28;20196;-46
2023/10/30 03:44:41;;;;;;;5.73;0.80;;;11.00;99.90;;;;;;5111056;27;20965;-49
2023/10/30 03:47:07;;;;;;;5.10;0.97;;;11.00;99.90;;;;;;5092817;27;20193;-44
2023/10/30 03:49:34;;;;;;;3.10;1.57;;;11.00;99.90;;;;;;5102423;27;20190;-53
2023/10/30 03:52:02;;;;;;;3.33;1.10;;;11.00;99.90;;;;;;5098517;27;20251;-48
2023/10/30 03:54:29;;;;;;;3.00;1.30;;;11.00;99.90;;;;;;5067985;28;20221;-46
2023/10/30 03:56:56;;;;;;;2.90;0.90;;;11.00;99.90;;;;;;5112273;27;20349;-47
2023/10/30 03:59:23;;;;;;;3.80;1.10;;;11.00;99.90;;;;;;5100438;28;20555;-47
2023/10/30 04:01:50;;;;;;;3.10;0.93;;;11.00;99.90;;;;;;5092983;28;20205;-51
2023/10/30 04:04:16;;;;;;;3.17;1.13;;;11.00;99.90;;;;;;5092018;27;20221;-48
2023/10/30 04:06:44;;;;;;;4.40;0.90;;;11.10;99.90;;;;;;5097481;27;20236;-49
2023/10/30 04:09:12;;;;;;;4.53;0.90;;;11.10;99.90;;;;;;5107413;27;20206;-46
2023/10/30 04:11:39;;;;;;;6.17;0.90;;;11.10;99.90;;;;;;5071033;27;20976;-51
2023/10/30 04:14:05;;;;;;;5.40;1.80;;;11.10;99.90;;;;;;5108209;27;20228;-53
2023/10/30 04:16:33;;;;;;;3.20;0.70;;;11.10;99.90;;;;;;5104594;27;20185;-51
2023/10/30 04:18:59;;;;;;;6.20;1.27;;;11.10;99.90;;;;;;5094519;28;20214;-49
2023/10/30 04:21:26;;;;;;;5.43;1.20;;;11.10;99.90;;;;;;5091584;28;20251;-47
2023/10/30 04:23:54;;;;;;;4.90;1.57;;;11.10;99.90;;;;;;5112227;27;20209;-49
2023/10/30 04:26:22;;;;;;;8.20;1.80;;;11.10;99.90;;;;;;5084200;27;20213;-43
2023/10/30 04:28:49;;;;;;;6.37;1.07;;;11.10;99.90;;;;;;5102719;27;20205;-48
2023/10/30 04:31:16;;;;;;;3.10;0.80;;;11.10;99.90;;;;;;5110305;27;20209;-46
2023/10/30 04:33:43;;;;;;;3.67;1.03;;;11.20;99.90;;;;;;5097338;27;20222;-48
2023/10/30 04:36:10;;;;;;;5.40;1.17;;;11.20;99.90;;;;;;5101356;28;20571;-44
2023/10/30 04:38:37;;;;;;;5.20;1.27;;;11.20;99.90;;;;;;5093540;27;20196;-46
2023/10/30 04:41:05;;;;;;;3.27;0.90;;;11.20;99.90;;;;;;5103655;28;20201;-47
2023/10/30 04:43:33;;;;;;;3.60;1.43;;;11.20;99.90;;;;;;5063733;28;20241;-49
2023/10/30 04:46:00;;;;;;;5.73;1.33;;;11.20;99.90;;;;;;5099324;28;20239;-48
2023/10/30 04:48:29;;;;;;;9.33;1.40;;;11.20;99.90;;;;;;5104202;27;20197;-50
2023/10/30 04:50:56;;;;;;;5.77;1.33;;;11.20;99.90;;;;;;5099667;27;20212;-49
2023/10/30 04:53:22;;;;;;;5.93;1.20;;;11.20;99.90;;;;;;5096465;27;20221;-47
2023/10/30 04:55:50;;;;;;;8.77;1.73;;;11.20;99.90;;;;;;5107569;27;20858;-50
2023/10/30 04:58:17;;;;;;;8.87;1.43;;;11.20;99.90;;;;;;5077197;27;20674;-49
2023/10/30 05:00:46;;;;;;;3.93;1.40;;;11.20;99.90;;;;;;5096767;27;20194;-50
2023/10/30 05:03:13;;;;;;;3.93;1.20;;;11.20;99.90;;;;;;5099235;27;20322;-45
2023/10/30 05:05:40;;;;;;;6.93;1.30;;;11.20;99.90;;;;;;5093793;27;20239;-47
2023/10/30 05:08:07;;;;;;;10.27;2.20;;;11.20;99.90;;;;;;5088255;27;20193;-46
2023/10/30 05:10:34;;;;;;;8.00;1.40;;;11.20;99.90;;;;;;5092005;28;20185;-47
2023/10/30 05:13:01;;;;;;;3.70;1.20;;;11.20;99.90;;;;;;5103672;27;20815;-49
2023/10/30 05:15:28;;;;;;;8.17;1.73;;;11.20;99.90;;;;;;5067439;27;20217;-46
2023/10/30 05:17:56;;;;;;;6.60;1.60;;;11.20;99.90;;;;;;5097084;28;20712;-50
2023/10/30 05:20:23;;;;;;;3.70;1.23;;;11.20;99.90;;;;;;5090125;28;20200;-44
2023/10/30 05:22:49;;;;;;;8.03;1.60;;;11.20;99.90;;;;;;5083514;27;20308;-45
2023/10/30 05:25:17;;;;;;;4.97;1.50;;;11.30;99.90;;;;;;5093540;28;20246;-45
2023/10/30 05:27:44;;;;;;;6.03;1.43;;;11.20;99.90;;;;;;5096736;28;20832;-52
2023/10/30 05:30:12;;;;;;;3.77;1.13;;;11.20;99.90;;;;;;5067843;27;20695;-46
2023/10/30 05:32:38;;;;;;;4.43;1.20;;;11.20;99.90;;;;;;5084791;28;20233;-48
2023/10/30 05:35:07;;;;;;;7.67;1.60;;;11.20;99.90;;;;;;5096475;28;20215;-46
2023/10/30 05:37:34;;;;;;;6.07;1.33;;;11.20;99.90;;;;;;5074071;28;20836;-46
2023/10/30 05:40:01;;;;;;;2.63;1.30;;;11.20;99.90;;;;;;5093435;28;20683;-46
2023/10/30 05:42:28;;;;;;;7.27;1.40;;;11.10;99.90;;;;;;5097203;28;20196;-45
2023/10/30 05:44:55;;;;;;;7.17;1.77;;;11.10;99.90;;;;;;5099564;28;20186;-51
2023/10/30 05:47:22;;;;;;;4.33;1.33;;;11.10;99.90;;;;;;5057538;28;20224;-45
2023/10/30 05:49:48;;;;;;;5.47;1.33;;;11.10;99.90;;;;;;5102156;28;20202;-49
2023/10/30 05:52:17;;;;;;;6.70;1.10;;;11.10;99.90;;;;;;5078590;28;20221;-45
2023/10/30 05:54:43;;;;;;;2.20;1.03;;;11.10;99.90;;;;;;5086066;28;20194;-51
2023/10/30 05:57:11;;;;;;;5.83;1.70;;;11.10;99.90;;;;;;5099127;28;20181;-46
2023/10/30 05:59:38;;;;;;;5.47;1.20;;;11.10;99.90;;;;;;5107658;28;20181;-49
2023/10/30 06:02:05;;;;;;;7.23;1.10;;;11.10;99.90;;;;;;5072550;28;20201;-46
2023/10/30 06:04:31;;;;;;;9.10;1.40;;;11.00;99.90;;;;;;5085647;28;20269;-46
2023/10/30 06:06:58;;;;;;;5.10;1.00;;;11.00;99.90;;;;;;5092500;28;20772;-46
2023/10/30 06:09:27;;;;;;;5.73;1.30;;;11.00;99.90;;;;;;5070431;28;20193;-45
2023/10/30 06:11:54;;;;;;;3.07;1.00;;;11.00;99.90;;;;;;5095338;28;20666;-49
2023/10/30 06:14:21;;;;;;;7.33;1.60;;;11.00;99.90;;;;;;5092830;28;21905;-48
2023/10/30 06:16:48;;;;;;;4.83;1.03;;;11.00;99.90;;;;;;5070266;28;20193;-48
2023/10/30 06:19:15;;;;;;;7.07;1.67;;;11.00;99.90;;;;;;5089251;28;20200;-49
2023/10/30 06:21:43;;;;;;;5.93;1.13;;;10.90;99.90;;;;;;5096285;28;20226;-45
2023/10/30 06:24:11;;;;;;;8.70;1.37;;;10.90;99.90;;;;;;5080786;28;20224;-45
2023/10/30 06:26:41;;;;;;;6.43;1.50;;;10.90;99.90;;;;;;5081212;28;20321;-45
2023/10/30 06:29:08;;;;;;;8.43;1.20;;;10.90;99.90;;;;;;5099975;28;20209;-48
2023/10/30 06:31:35;;;;;;;9.13;1.57;;;10.90;99.90;;;;;;5097253;28;20861;-47
2023/10/30 06:34:02;;;;;;;6.53;1.47;;;10.80;99.90;;;;;;5061434;28;20262;-49
2023/10/30 06:36:30;;;;;;;6.90;1.50;;;10.80;99.90;;;;;;5095621;28;20190;-48
2023/10/30 06:38:57;;;;;;;6.87;1.43;;;10.80;99.90;;;;;;5084726;28;20667;-47
2023/10/30 06:41:24;;;;;;;6.93;1.33;;;10.80;99.90;;;;;;5080798;28;20220;-48
2023/10/30 06:43:52;;;;;;;4.23;1.37;;;10.80;99.90;;;;;;5111157;28;20269;-47
2023/10/30 06:46:19;;;;;;;7.80;1.20;;;10.80;99.90;;;;;;5097645;28;20233;-49
2023/10/30 06:48:46;;;;;;;8.47;1.50;;;10.70;99.90;;;;;;5067953;28;20280;-45
2023/10/30 06:51:13;;;;;;;5.17;1.10;;;10.70;99.90;;;;;;5099771;27;20247;-45
2023/10/30 06:53:39;;;;;;;6.13;1.40;;;10.70;99.90;;;;;;5088507;27;20257;-48
2023/10/30 06:56:07;;;;;;;6.30;1.60;;;10.70;99.90;;;;;;5092858;28;20208;-47
2023/10/30 06:58:34;;;;;;;6.60;1.37;;;10.70;99.90;;;;;;5088356;28;20270;-48
2023/10/30 07:01:05;;;;;;;3.90;1.10;;;10.70;99.90;;;;;;5103531;27;20970;-51
2023/10/30 07:03:33;;;;;;;4.37;1.33;;;10.70;99.90;;;;;;5072073;27;20232;-51
2023/10/30 07:06:00;;;;;;;6.83;1.93;;;10.60;99.90;;;;;;5106255;27;20300;-49
2023/10/30 07:08:27;;;;;;;4.90;1.23;;;10.60;99.90;;;;;;5107144;27;20203;-46
2023/10/30 07:10:55;;;;;;;6.80;1.37;;;10.60;99.90;;;;;;5087260;27;20197;-46
2023/10/30 07:13:22;;;;;;;6.60;1.47;;;10.60;99.90;;;;;;5098432;27;20229;-48
2023/10/30 07:15:49;;;;;;;10.47;1.53;;;10.60;99.90;;;;;;5098766;27;20208;-50
2023/10/30 07:18:17;;;;;;;5.13;1.40;;;10.60;99.90;;;;;;5108554;27;20267;-47
2023/10/30 07:20:44;;;;;;;7.07;1.47;;;10.60;99.90;;;;;;5079612;27;20212;-49
2023/10/30 07:23:11;;;;;;;6.87;1.50;;;10.60;99.90;;;;;;5097032;28;20238;-49
2023/10/30 07:25:38;;;;;;;6.00;1.37;;;10.60;99.90;;;;;;5083323;27;21325;-46
2023/10/30 07:28:05;;;;;;;6.40;1.40;;;10.60;99.90;;;;;;5089830;28;20212;-48
2023/10/30 07:30:32;;;;;;;6.07;1.53;;;10.60;99.90;;;;;;5093713;28;20214;-45
2023/10/30 07:32:59;;;;;;;5.00;2.17;;;10.60;99.90;;;;;;5107767;27;20232;-49
2023/10/30 07:35:27;;;;;;;6.17;1.50;;;10.60;99.90;;;;;;5066992;27;20921;-46
2023/10/30 07:37:54;;;;;;;5.63;1.20;;;10.60;99.90;;;;;;5103741;28;20193;-46
2023/10/30 07:40:25;;;;;;;4.73;1.67;;;10.60;99.90;;;;;;5077638;28;20642;-53
2023/10/30 07:42:54;;;;;;;7.77;1.30;;;10.60;99.90;;;;;;5083883;28;20635;-47
2023/10/30 07:45:21;;;;;;;4.50;1.47;;;10.60;99.90;;;;;;5078777;27;20818;-48
2023/10/30 07:47:48;;;;;;;9.27;1.97;;;10.60;99.90;;;;;;5094775;27;20201;-44
2023/10/30 07:50:15;;;;;;;4.40;1.03;;;10.60;99.90;;;;;;5066122;27;20218;-46
2023/10/30 07:52:43;;;;;;;3.97;1.20;;;10.60;99.90;;;;;;5078426;28;20270;-45
2023/10/30 07:55:10;;;;;;;8.80;1.47;;;10.70;99.90;;;;;;5093908;27;20194;-43
2023/10/30 07:57:37;;;;;;;4.50;1.37;;;10.70;99.90;;;;;;5070135;27;20193;-45
2023/10/30 08:00:04;;;;;;;10.07;1.70;;;10.70;99.90;;;;;;5085484;27;20595;-44
2023/10/30 08:02:40;;;;;;;6.57;1.83;;;10.80;99.90;;;;;;5089919;28;20221;-44
2023/10/30 08:05:07;;;;;;;3.10;1.50;;;10.90;99.90;;;;;;5085840;27;20197;-45
2023/10/30 08:07:34;;;;;;;4.60;1.37;;;11.00;99.90;;;;;;5095014;27;20300;-45
2023/10/30 08:10:03;;;;;;;6.33;1.23;;;11.00;99.90;;;;;;5103065;28;20276;-44
2023/10/30 08:12:30;;;;;;;8.67;1.83;;;11.10;99.90;;;;;;5090025;28;20255;-44
2023/10/30 08:14:59;;;;;;;6.53;1.47;;;11.20;99.90;;;;;;5086605;27;20238;-42
2023/10/30 08:17:26;;;;;;;7.50;1.50;;;11.30;99.90;;;;;;5093151;28;20613;-43
2023/10/30 08:19:53;;;;;;;6.00;1.57;;;11.50;99.90;;;;;;5071732;27;20519;-43
2023/10/30 08:22:20;;;;;;;10.27;1.97;;;11.60;99.90;;;;;;5096071;28;20698;-44
2023/10/30 08:24:46;;;;;;;3.53;1.83;;;11.80;99.90;;;;;;5104722;27;20219;-43
2023/10/30 08:27:15;;;;;;;5.30;1.47;;;12.00;99.90;;;;;;5100081;28;20274;-43
2023/10/30 08:29:41;;;;;;;3.07;1.33;;;12.00;99.90;;;;;;5075684;28;20269;-45
2023/10/30 08:32:08;;;;;;;3.93;1.30;;;12.10;99.90;;;;;;5099143;27;20797;-46
2023/10/30 08:34:35;;;;;;;8.77;1.73;;;12.20;99.90;;;;;;5100724;28;20732;-48
2023/10/30 08:37:02;;;;;;;5.40;1.43;;;12.10;99.90;;;;;;5088632;27;20680;-45
2023/10/30 08:39:29;;;;;;;6.93;1.23;;;12.20;99.90;;;;;;5093559;27;20196;-44
2023/10/30 08:41:55;;;;;;;5.03;1.10;;;12.20;99.90;;;;;;5099486;28;20929;-45
2023/10/30 08:44:24;;;;;;;5.13;1.70;;;12.30;99.90;;;;;;5084330;28;20306;-44
2023/10/30 08:46:52;;;;;;;3.03;1.27;;;12.30;99.90;;;;;;5092163;28;20237;-44
2023/10/30 08:49:19;;;;;;;5.27;1.23;;;12.40;99.90;;;;;;5089851;27;20284;-44
2023/10/30 08:51:46;;;;;;;8.80;2.17;;;12.40;99.90;;;;;;5068065;27;20241;-43
2023/10/30 08:54:13;;;;;;;6.63;1.10;;;12.50;99.90;;;;;;5093013;27;20233;-46
2023/10/30 08:56:41;;;;;;;5.70;1.53;;;12.60;99.90;;;;;;5094844;28;20232;-43
2023/10/30 08:59:08;;;;;;;4.53;1.33;;;12.60;99.90;;;;;;5076299;28;20504;-44
2023/10/30 09:01:36;;;;;;;6.77;0.90;;;12.70;99.90;;;;;;5091618;28;20201;-43
2023/10/30 09:04:04;;;;;;;5.83;1.43;;;12.70;99.90;;;;;;5093395;28;20208;-44
2023/10/30 09:06:32;;;;;;;4.53;1.10;;;12.80;99.90;;;;;;5101565;28;20205;-44
2023/10/30 09:08:59;;;;;;;4.03;1.53;;;12.80;99.90;;;;;;5067902;28;20209;-46
2023/10/30 09:11:26;;;;;;;2.67;1.03;;;12.80;99.90;;;;;;5101286;27;21014;-43
2023/10/30 09:13:52;;;;;;;5.77;1.50;;;12.90;99.90;;;;;;5084695;27;20225;-50
2023/10/30 09:16:19;;;;;;;9.43;1.50;;;13.00;99.90;;;;;;5105703;27;20206;-43
2023/10/30 09:18:47;;;;;;;9.50;1.87;;;13.00;99.90;;;;;;5084823;27;20220;-43
2023/10/30 09:21:14;;;;;;;11.20;2.53;;;13.00;99.90;;;;;;5100027;28;20190;-43
2023/10/30 09:23:43;;;;;;;6.53;1.30;;;13.00;99.90;;;;;;5063433;28;20251;-43
2023/10/30 09:26:10;;;;;;;3.63;0.87;;;13.10;99.90;;;;;;5096475;28;20189;-42
2023/10/30 09:28:37;;;;;;;7.00;1.63;;;13.20;99.90;;;;;;5098052;27;20291;-42
2023/10/30 09:31:04;;;;;;;9.20;1.37;;;13.20;99.90;;;;;;5085535;28;21143;-44
2023/10/30 09:33:32;;;;;;;8.93;1.00;;;13.30;99.90;;;;;;5091017;27;20244;-45
2023/10/30 09:36:00;;;;;;;5.73;1.10;;;13.30;99.90;;;;;;5087049;28;20203;-49
2023/10/30 09:38:27;;;;;;;5.60;1.50;;;13.40;99.90;;;;;;5069514;27;20232;-45
2023/10/30 09:40:59;;;;;;;7.20;1.47;;;13.40;99.90;;;;;;5098438;28;20268;-44
2023/10/30 09:43:29;;;;;;;5.90;1.10;;;13.40;99.90;;;;;;5098358;28;20228;-44
2023/10/30 09:45:58;;;;;;;4.40;1.03;;;13.50;99.90;;;;;;5087096;28;20621;-43
2023/10/30 09:48:25;;;;;;;4.73;1.30;;;13.50;99.90;;;;;;5106103;28;20344;-44
2023/10/30 09:50:53;;;;;;;9.93;1.93;;;13.60;99.90;;;;;;5089131;28;20201;-47
2023/10/30 09:53:21;;;;;;;10.13;1.43;;;13.70;99.90;;;;;;5070671;28;20768;-45
2023/10/30 09:55:50;;;;;;;5.37;1.17;;;13.70;99.90;;;;;;5091237;28;20221;-45
2023/10/30 09:58:17;;;;;;;6.20;1.10;;;13.90;99.90;;;;;;5090589;28;20182;-43
2023/10/30 10:00:46;;;;;;;6.83;1.30;;;14.00;99.90;;;;;;5091689;28;20204;-44
2023/10/30 10:03:13;;;;;;;8.80;1.70;;;14.00;99.90;;;;;;5098595;28;20231;-44
2023/10/30 10:05:39;;;;;;;4.27;1.03;;;14.00;99.90;;;;;;5094437;28;20209;-45
2023/10/30 10:08:06;;;;;;;5.73;1.43;;;13.90;99.90;;;;;;5093629;28;20227;-46
2023/10/30 10:10:55;;;;;;;7.33;1.20;;;13.90;99.90;;;;;;5075700;28;20204;-46
2023/10/30 10:13:22;;;;;;;5.80;1.37;;;13.80;99.90;;;;;;5097163;28;20217;-47
2023/10/30 10:15:49;;;;;;;4.53;1.30;;;13.90;99.90;;;;;;5073438;28;20219;-46
2023/10/30 10:18:23;;;;;;;7.30;1.37;;;13.90;99.90;;;;;;5103923;28;20206;-44
2023/10/30 10:20:59;;;;;;;7.53;1.43;;;14.00;99.90;;;;;;5088453;28;20268;-43
2023/10/30 10:23:30;;;;;;;8.90;1.50;;;14.00;99.90;;;;;;5100842;28;20246;-43
2023/10/30 10:25:58;;;;;;;9.00;1.47;;;13.90;99.90;;;;;;5072220;28;20194;-44
2023/10/30 10:28:26;;;;;;;6.37;1.40;;;13.90;99.90;;;;;;5098084;28;20629;-45
2023/10/30 10:30:54;;;;;;;5.13;1.40;;;13.80;99.90;;;;;;5095766;27;20376;-46
2023/10/30 10:33:22;;;;;;;4.50;1.20;;;13.80;99.90;;;;;;5096895;28;20213;-45
2023/10/30 10:35:53;;;;;;;11.50;1.67;;;13.90;99.90;;;;;;5088038;28;20200;-44
2023/10/30 10:38:21;;;;;;;6.13;1.43;;;13.90;99.90;;;;;;5103896;27;20194;-45
2023/10/30 10:40:48;;;;;;;5.80;1.27;;;14.00;99.90;;;;;;5075469;27;20202;-44
2023/10/30 10:43:19;;;;;;;6.37;1.27;;;14.00;99.90;;;;;;5101349;27;20221;-43
2023/10/30 10:45:47;;;;;;;3.20;1.40;;;14.00;99.90;;;;;;5091331;28;20220;-45
2023/10/30 10:48:14;;;;;;;5.57;1.67;;;14.10;99.90;;;;;;5100228;27;20225;-44
2023/10/30 10:50:42;;;;;;;7.63;1.50;;;14.00;99.90;;;;;;5093922;27;20200;-45
2023/10/30 10:53:10;;;;;;;8.07;1.20;;;14.00;99.90;;;;;;5103434;27;20213;-46
2023/10/30 10:55:42;;;;;;;4.23;1.30;;;14.10;99.90;;;;;;5094466;27;20584;-45
2023/10/30 10:58:12;;;;;;;3.60;1.47;;;14.10;99.90;;;;;;5097063;27;20201;-43
2023/10/30 11:00:47;;;;;;;5.87;1.63;;;14.10;99.90;;;;;;5095205;27;20200;-46
2023/10/30 11:03:15;;;;;;;9.57;1.90;;;14.10;99.90;;;;;;5097550;27;20317;-44
2023/10/30 11:05:44;;;;;;;7.80;1.70;;;14.10;99.90;;;;;;5103561;27;20668;-47
2023/10/30 11:08:35;;;;;;;6.53;1.30;;;14.20;99.90;;;;;;5098074;28;20625;-46
2023/10/30 11:11:10;;;;;;;14.67;1.50;;;14.20;99.90;;;;;;5072424;27;20217;-49
2023/10/30 11:13:47;;;;;;;3.20;1.00;;;14.30;99.90;;;;;;5113359;27;20205;-46
2023/10/30 11:16:22;;;;;;;7.43;1.70;;;14.40;99.90;;;;;;5096704;27;20325;-47
2023/10/30 11:18:52;;;;;;;9.13;1.80;;;14.40;99.90;;;;;;5095383;27;20913;-43
2023/10/30 11:21:24;;;;;;;3.50;1.03;;;14.40;99.90;;;;;;5105866;27;20280;-46
2023/10/30 11:23:57;;;;;;;5.17;1.77;;;14.50;99.90;;;;;;5091039;28;20209;-44
2023/10/30 11:26:43;;;;;;;4.20;1.33;;;14.60;99.90;;;;;;5100810;28;20557;-48
2023/10/30 11:29:13;;;;;;;6.33;1.27;;;14.70;99.90;;;;;;5102171;27;20217;-46
2023/10/30 11:32:02;;;;;;;5.70;1.40;;;14.70;99.90;;;;;;5100281;27;20292;-46
2023/10/30 11:34:31;;;;;;;5.50;1.33;;;14.70;99.90;;;;;;5088728;27;20503;-45
2023/10/30 11:37:04;;;;;;;2.50;1.20;;;14.70;99.90;;;;;;5101332;28;20193;-46
2023/10/30 11:39:35;;;;;;;5.03;1.20;;;14.80;99.90;;;;;;5103878;27;20325;-45
2023/10/30 11:42:04;;;;;;;7.50;1.40;;;14.80;99.90;;;;;;5103916;28;20243;-47
2023/10/30 11:44:32;;;;;;;4.03;1.53;;;14.70;99.90;;;;;;5086722;28;20258;-45
2023/10/30 11:47:00;;;;;;;3.57;1.17;;;14.70;99.90;;;;;;5103346;28;20201;-44
2023/10/30 11:49:32;;;;;;;6.43;1.40;;;14.60;99.90;;;;;;5094407;28;20397;-45
2023/10/30 11:51:59;;;;;;;3.07;0.90;;;14.70;99.90;;;;;;5099261;28;20348;-43
2023/10/30 11:54:32;;;;;;;10.30;1.40;;;14.70;99.90;;;;;;5092900;28;20237;-44
2023/10/30 11:57:00;;;;;;;6.30;1.23;;;14.60;99.90;;;;;;5101909;28;20200;-43
2023/10/30 11:59:27;;;;;;;4.13;1.20;;;14.60;99.90;;;;;;5074759;27;20186;-46
2023/10/30 12:01:56;;;;;;;5.17;1.50;;;14.70;99.90;;;;;;5100892;27;20204;-45
2023/10/30 12:04:26;;;;;;;3.93;1.13;;;14.70;99.90;;;;;;5096999;28;20284;-47
2023/10/30 12:06:53;;;;;;;5.07;1.50;;;14.80;99.90;;;;;;5087499;28;20201;-46
2023/10/30 12:09:21;;;;;;;7.90;1.53;;;14.70;99.90;;;;;;5087361;28;20221;-47
2023/10/30 12:11:49;;;;;;;8.20;1.87;;;14.80;99.90;;;;;;5101121;27;20286;-43
2023/10/30 12:14:18;;;;;;;2.73;1.30;;;14.80;99.90;;;;;;5065330;27;20240;-45
2023/10/30 12:16:48;;;;;;;6.13;1.70;;;14.70;99.90;;;;;;5097827;28;20201;-45
2023/10/30 12:19:15;;;;;;;8.70;2.20;;;14.70;99.90;;;;;;5099388;27;20193;-47
2023/10/30 12:21:44;;;;;;;5.30;1.73;;;14.70;99.90;;;;;;5090492;28;20676;-44
2023/10/30 12:24:11;;;;;;;5.70;1.30;;;14.70;99.90;;;;;;5090689;28;20244;-48
2023/10/30 12:26:41;;;;;;;5.33;1.40;;;14.70;99.90;;;;;;5094421;27;20934;-50
2023/10/30 12:29:07;;;;;;;6.77;1.60;;;14.70;99.90;;;;;;5063500;27;20245;-44
2023/10/30 12:31:35;;;;;;;9.03;1.90;;;14.80;99.90;;;;;;5095101;28;20196;-45
2023/10/30 12:34:09;;;;;;;7.10;1.43;;;14.80;99.90;;;;;;5101408;28;20788;-46
2023/10/30 12:36:37;;;;;;;9.17;2.20;;;14.70;99.90;;;;;;5091771;27;20276;-44
2023/10/30 12:39:18;;;;;;;5.67;1.30;;;14.70;99.90;;;;;;5094206;27;20193;-44
2023/10/30 12:41:47;;;;;;;4.30;1.20;;;14.80;99.90;;;;;;5090499;28;20205;-45
2023/10/30 12:44:16;;;;;;;4.83;1.40;;;14.80;99.90;;;;;;5068276;28;20236;-45
2023/10/30 12:46:43;;;;;;;5.70;1.60;;;14.80;99.90;;;;;;5100905;28;20200;-45
2023/10/30 12:49:10;;;;;;;4.43;1.10;;;14.90;99.90;;;;;;5085454;28;20232;-46